Time;durP1;ratioP1;P1;durP2;ratioP2;P2;SDS_P1;SDS_P2;PMS_P1;PMS_P2;Temp;Humidity;BMP_temperature;BMP_pressure;BME280_temperature;BME280_humidity;BME280_pressure;Samples;Min_cycle;Max_cycle;Signal;HPM_P1;HPM_P2
2023/11/15 00:02:17;;;;;;;32.55;15.38;;;10.10;99.90;;;;;;5073374;28;20028;-72
2023/11/15 00:04:43;;;;;;;30.13;14.63;;;10.10;99.90;;;;;;5073857;28;20425;-72
2023/11/15 00:07:09;;;;;;;28.17;12.90;;;10.10;99.90;;;;;;5073701;28;20025;-72
2023/11/15 00:09:34;;;;;;;29.50;14.43;;;10.10;99.90;;;;;;5073898;28;20047;-72
2023/11/15 00:12:01;;;;;;;22.48;13.30;;;10.10;99.90;;;;;;5073636;28;20024;-72
2023/11/15 00:14:26;;;;;;;30.60;13.95;;;10.10;99.90;;;;;;5073635;28;20513;-72
2023/11/15 00:16:52;;;;;;;26.90;14.30;;;10.10;99.90;;;;;;5073734;28;20025;-72
2023/11/15 00:19:20;;;;;;;28.67;14.77;;;10.00;99.90;;;;;;5073586;28;20103;-73
2023/11/15 00:21:46;;;;;;;34.10;14.95;;;10.00;99.90;;;;;;5073694;28;20074;-72
2023/11/15 00:24:12;;;;;;;26.77;13.07;;;10.10;99.90;;;;;;5073275;28;20394;-72
2023/11/15 00:26:38;;;;;;;30.52;14.35;;;10.00;99.90;;;;;;5073112;28;20074;-72
2023/11/15 00:29:03;;;;;;;29.55;13.50;;;10.00;99.90;;;;;;5073428;28;20036;-72
2023/11/15 00:31:30;;;;;;;24.33;13.32;;;10.00;99.90;;;;;;5073471;28;20386;-72
2023/11/15 00:33:55;;;;;;;24.25;12.90;;;10.10;99.90;;;;;;5073461;28;20032;-72
2023/11/15 00:36:21;;;;;;;29.05;14.57;;;10.10;99.90;;;;;;5073395;28;20040;-72
2023/11/15 00:38:47;;;;;;;30.45;13.82;;;10.10;99.90;;;;;;5073413;28;20044;-72
2023/11/15 00:41:13;;;;;;;31.63;14.32;;;10.00;99.90;;;;;;5073717;28;20489;-72
2023/11/15 00:43:38;;;;;;;25.95;13.43;;;10.00;99.90;;;;;;5072783;28;20041;-72
2023/11/15 00:46:04;;;;;;;28.27;14.30;;;10.10;99.90;;;;;;5073269;28;20032;-72
2023/11/15 00:48:30;;;;;;;29.02;13.90;;;10.10;99.90;;;;;;5072956;28;20028;-72
2023/11/15 00:50:55;;;;;;;29.58;14.85;;;10.10;99.90;;;;;;5072908;28;20025;-72
2023/11/15 00:53:21;;;;;;;29.67;13.38;;;10.10;99.90;;;;;;5073321;28;20035;-73
2023/11/15 00:55:48;;;;;;;28.17;14.18;;;10.10;99.90;;;;;;5073255;28;20070;-73
2023/11/15 00:58:14;;;;;;;30.88;14.13;;;10.10;99.90;;;;;;5072940;28;20031;-72
2023/11/15 01:00:44;;;;;;;28.48;13.77;;;10.10;99.90;;;;;;5073116;28;20024;-72
2023/11/15 01:03:12;;;;;;;32.33;13.32;;;10.10;99.90;;;;;;5072939;28;20105;-72
2023/11/15 01:05:38;;;;;;;30.33;13.45;;;10.10;99.90;;;;;;5073038;28;20492;-72
2023/11/15 01:08:04;;;;;;;32.00;14.27;;;10.00;99.90;;;;;;5073149;28;20025;-72
2023/11/15 01:10:31;;;;;;;35.20;15.50;;;10.10;99.90;;;;;;5072954;28;20032;-72
2023/11/15 01:12:58;;;;;;;30.45;14.77;;;10.10;99.90;;;;;;5072665;28;20119;-72
2023/11/15 01:15:24;;;;;;;31.90;15.05;;;10.10;99.90;;;;;;5072972;28;20029;-72
2023/11/15 01:17:50;;;;;;;27.05;13.85;;;10.10;99.90;;;;;;5073056;28;20043;-72
2023/11/15 01:20:17;;;;;;;32.28;13.05;;;10.10;99.90;;;;;;5073184;28;20035;-72
2023/11/15 01:22:42;;;;;;;33.75;15.27;;;10.10;99.90;;;;;;5072941;28;20029;-72
2023/11/15 01:25:08;;;;;;;36.00;14.40;;;10.20;99.90;;;;;;5072956;28;20021;-72
2023/11/15 01:27:35;;;;;;;28.98;13.75;;;10.20;99.90;;;;;;5072885;28;20074;-72
2023/11/15 01:30:01;;;;;;;22.67;13.23;;;10.20;99.90;;;;;;5072485;28;20424;-72
2023/11/15 01:32:27;;;;;;;30.83;14.18;;;10.20;99.90;;;;;;5072463;28;20063;-72
2023/11/15 01:34:53;;;;;;;28.98;14.00;;;10.20;99.90;;;;;;5072880;28;20450;-72
2023/11/15 01:37:18;;;;;;;35.00;14.80;;;10.20;99.90;;;;;;5072783;28;20115;-72
2023/11/15 01:39:44;;;;;;;30.83;14.25;;;10.20;99.90;;;;;;5072978;28;20363;-72
2023/11/15 01:42:11;;;;;;;35.85;13.77;;;10.20;99.90;;;;;;5072406;28;20106;-72
2023/11/15 01:44:37;;;;;;;34.05;13.32;;;10.20;99.90;;;;;;5072370;28;20115;-72
2023/11/15 01:47:04;;;;;;;29.60;13.48;;;10.20;99.90;;;;;;5072323;28;20048;-72
2023/11/15 01:49:31;;;;;;;27.20;12.13;;;10.10;99.90;;;;;;5072863;28;20020;-72
2023/11/15 01:51:57;;;;;;;22.63;12.30;;;10.10;99.90;;;;;;5076380;28;20035;-72
2023/11/15 01:54:23;;;;;;;25.35;11.10;;;10.10;99.90;;;;;;5076334;28;20537;-72
2023/11/15 01:56:49;;;;;;;20.67;11.27;;;10.10;99.90;;;;;;5076262;28;20470;-73
2023/11/15 01:59:15;;;;;;;24.77;11.35;;;10.10;99.90;;;;;;5076345;28;20025;-73
2023/11/15 02:01:42;;;;;;;23.88;12.00;;;10.00;99.90;;;;;;5076060;28;20025;-72
2023/11/15 02:04:09;;;;;;;30.58;11.88;;;10.00;99.90;;;;;;5075527;28;20036;-72
2023/11/15 02:06:36;;;;;;;30.42;12.82;;;10.00;99.90;;;;;;5075635;28;20028;-72
2023/11/15 02:09:04;;;;;;;26.73;12.23;;;10.00;99.90;;;;;;5075557;28;20024;-72
2023/11/15 02:11:30;;;;;;;30.38;11.82;;;10.00;99.90;;;;;;5075916;28;20017;-72
2023/11/15 02:13:55;;;;;;;28.80;12.63;;;9.90;99.90;;;;;;5075922;28;20571;-72
2023/11/15 02:16:21;;;;;;;28.20;12.25;;;9.90;99.90;;;;;;5075912;28;20033;-73
2023/11/15 02:18:48;;;;;;;32.88;12.23;;;9.90;99.90;;;;;;5075464;28;20035;-72
2023/11/15 02:21:15;;;;;;;27.73;11.77;;;9.90;99.90;;;;;;5075857;28;20140;-72
2023/11/15 02:23:44;;;;;;;34.33;13.35;;;9.90;99.90;;;;;;5075337;28;20539;-72
2023/11/15 02:26:09;;;;;;;42.08;14.13;;;9.90;99.90;;;;;;5075229;28;20028;-72
2023/11/15 02:28:35;;;;;;;29.50;13.43;;;9.90;99.90;;;;;;5075240;28;20021;-73
2023/11/15 02:31:01;;;;;;;34.13;12.40;;;9.90;99.90;;;;;;5075180;28;20020;-72
2023/11/15 02:33:27;;;;;;;29.95;11.77;;;9.90;99.90;;;;;;5075853;28;20488;-72
2023/11/15 02:35:53;;;;;;;34.72;11.68;;;9.90;99.90;;;;;;5075206;28;20025;-73
2023/11/15 02:38:19;;;;;;;25.85;10.05;;;9.90;99.90;;;;;;5075621;28;20025;-72
2023/11/15 02:40:45;;;;;;;33.63;10.90;;;9.90;99.90;;;;;;5075435;28;20029;-73
2023/11/15 02:43:11;;;;;;;23.50;9.15;;;9.80;99.90;;;;;;5074974;28;20048;-72
2023/11/15 02:45:36;;;;;;;24.85;9.40;;;9.90;99.90;;;;;;5075278;28;20186;-72
2023/11/15 02:48:02;;;;;;;24.60;9.07;;;9.80;99.90;;;;;;5075307;28;20078;-73
2023/11/15 02:50:31;;;;;;;23.25;8.13;;;9.80;99.90;;;;;;5075257;28;20389;-72
2023/11/15 02:52:58;;;;;;;29.48;9.05;;;9.80;99.90;;;;;;5075094;28;20071;-72
2023/11/15 02:55:23;;;;;;;20.60;7.38;;;9.80;99.90;;;;;;5074800;28;20028;-73
2023/11/15 02:57:49;;;;;;;20.40;7.63;;;9.80;99.90;;;;;;5075050;28;20035;-73
2023/11/15 03:00:16;;;;;;;24.42;7.72;;;9.80;99.90;;;;;;5075062;28;20029;-72
2023/11/15 03:02:42;;;;;;;18.98;7.85;;;9.80;99.90;;;;;;5074463;28;20029;-74
2023/11/15 03:05:10;;;;;;;15.98;5.85;;;9.80;99.90;;;;;;5074937;28;20016;-72
2023/11/15 03:07:36;;;;;;;20.35;6.40;;;9.80;99.90;;;;;;5074870;28;20020;-72
2023/11/15 03:10:02;;;;;;;20.45;6.57;;;9.80;99.90;;;;;;5074925;28;20482;-72
2023/11/15 03:12:30;;;;;;;18.73;6.20;;;9.80;99.90;;;;;;5074761;28;20039;-73
2023/11/15 03:14:56;;;;;;;16.48;5.82;;;9.70;99.90;;;;;;5074699;28;20584;-72
2023/11/15 03:17:22;;;;;;;14.32;5.80;;;9.70;99.90;;;;;;5074693;28;20119;-73
2023/11/15 03:19:47;;;;;;;14.23;5.50;;;9.70;99.90;;;;;;5074228;28;20035;-72
2023/11/15 03:22:13;;;;;;;16.65;5.72;;;9.70;99.90;;;;;;5074488;28;20115;-72
2023/11/15 03:24:39;;;;;;;13.77;5.57;;;9.80;99.90;;;;;;5074461;28;20020;-73
2023/11/15 03:27:06;;;;;;;14.02;5.50;;;9.80;99.90;;;;;;5074374;28;20119;-72
2023/11/15 03:29:32;;;;;;;22.20;6.25;;;9.70;99.90;;;;;;5074389;28;20393;-73
2023/11/15 03:31:58;;;;;;;10.52;5.63;;;9.70;99.90;;;;;;5073965;28;20393;-73
2023/11/15 03:34:24;;;;;;;11.55;5.75;;;9.60;99.90;;;;;;5073958;28;20032;-73
2023/11/15 03:36:50;;;;;;;17.83;6.55;;;9.60;99.90;;;;;;5074356;28;20387;-73
2023/11/15 03:39:19;;;;;;;16.20;6.70;;;9.60;99.90;;;;;;5073869;28;20119;-72
2023/11/15 03:41:45;;;;;;;17.27;6.53;;;9.60;99.90;;;;;;5074009;28;20390;-73
2023/11/15 03:44:10;;;;;;;12.95;7.32;;;9.60;99.90;;;;;;5073790;28;20029;-73
2023/11/15 03:46:36;;;;;;;18.48;8.27;;;9.60;99.90;;;;;;5073761;28;20029;-72
2023/11/15 03:49:02;;;;;;;14.63;7.45;;;9.60;99.90;;;;;;5074116;28;20050;-73
2023/11/15 03:51:28;;;;;;;15.48;7.72;;;9.60;99.90;;;;;;5073564;28;20070;-72
2023/11/15 03:53:53;;;;;;;14.70;7.63;;;9.70;99.90;;;;;;5073970;28;20033;-72
2023/11/15 03:56:19;;;;;;;16.35;6.68;;;9.70;99.90;;;;;;5073596;28;20024;-72
2023/11/15 03:58:44;;;;;;;16.42;7.05;;;9.70;99.90;;;;;;5074042;28;20035;-72
2023/11/15 04:01:10;;;;;;;13.48;6.20;;;9.60;99.90;;;;;;5073896;28;20021;-72
2023/11/15 04:03:36;;;;;;;15.80;5.68;;;9.60;99.90;;;;;;5073512;28;20032;-72
2023/11/15 04:06:03;;;;;;;11.98;5.80;;;9.60;99.90;;;;;;5073869;28;20024;-72
2023/11/15 04:08:29;;;;;;;14.70;4.95;;;9.60;99.90;;;;;;5073650;28;20497;-72
2023/11/15 04:10:55;;;;;;;15.85;5.28;;;9.60;99.90;;;;;;5073838;28;20016;-72
2023/11/15 04:13:21;;;;;;;10.93;5.05;;;9.60;99.90;;;;;;5072854;28;20425;-72
2023/11/15 04:15:48;;;;;;;9.43;4.32;;;9.60;99.90;;;;;;5073848;28;20040;-72
2023/11/15 04:18:13;;;;;;;13.30;3.92;;;9.60;99.90;;;;;;5073541;28;20545;-72
2023/11/15 04:20:39;;;;;;;11.50;4.28;;;9.60;99.90;;;;;;5073049;28;20324;-72
2023/11/15 04:23:05;;;;;;;5.18;3.28;;;9.50;99.90;;;;;;5073445;28;20547;-72
2023/11/15 04:25:31;;;;;;;6.53;2.92;;;9.50;99.90;;;;;;5073048;28;20463;-72
2023/11/15 04:27:56;;;;;;;8.52;3.50;;;9.50;99.90;;;;;;5073461;28;20020;-73
2023/11/15 04:30:22;;;;;;;7.05;3.40;;;9.50;99.90;;;;;;5073158;28;20078;-72
2023/11/15 04:32:48;;;;;;;9.23;3.55;;;9.50;99.90;;;;;;5073481;28;20033;-72
2023/11/15 04:35:14;;;;;;;6.35;3.08;;;9.50;99.90;;;;;;5073400;28;20138;-72
2023/11/15 04:37:39;;;;;;;7.20;2.67;;;9.50;99.90;;;;;;5072982;28;20070;-73
2023/11/15 04:40:07;;;;;;;4.70;2.58;;;9.50;99.90;;;;;;5073709;28;20077;-72
2023/11/15 04:42:33;;;;;;;6.35;2.88;;;9.50;99.90;;;;;;5072919;28;20078;-72
2023/11/15 04:44:59;;;;;;;5.97;2.65;;;9.50;99.90;;;;;;5073406;28;20043;-72
2023/11/15 04:47:25;;;;;;;11.35;2.40;;;9.50;99.90;;;;;;5073390;28;20111;-72
2023/11/15 04:49:51;;;;;;;6.47;3.00;;;9.50;99.90;;;;;;5073300;28;20025;-72
2023/11/15 04:52:16;;;;;;;7.70;2.60;;;9.50;99.90;;;;;;5073325;28;20381;-72
2023/11/15 04:54:42;;;;;;;7.88;2.55;;;9.50;99.90;;;;;;5073149;28;20029;-72
2023/11/15 04:57:08;;;;;;;5.75;2.22;;;9.50;99.90;;;;;;5073212;28;20119;-72
2023/11/15 04:59:34;;;;;;;8.15;2.65;;;9.50;99.90;;;;;;5073135;28;20033;-72
2023/11/15 05:02:00;;;;;;;6.00;2.63;;;9.50;99.90;;;;;;5072780;28;20477;-73
2023/11/15 05:04:26;;;;;;;5.63;2.42;;;9.50;99.90;;;;;;5072708;28;20119;-73
2023/11/15 05:06:54;;;;;;;5.50;2.08;;;9.50;99.90;;;;;;5073105;28;20067;-72
2023/11/15 05:09:20;;;;;;;7.65;2.28;;;9.50;99.90;;;;;;5072810;28;20390;-72
2023/11/15 05:11:45;;;;;;;8.07;2.83;;;9.50;99.90;;;;;;5073114;28;20492;-72
2023/11/15 05:14:12;;;;;;;11.65;3.38;;;9.40;99.90;;;;;;5073009;28;20032;-72
2023/11/15 05:16:37;;;;;;;11.10;3.80;;;9.40;99.90;;;;;;5072575;28;20025;-72
2023/11/15 05:19:03;;;;;;;6.78;3.60;;;9.40;99.90;;;;;;5073070;28;20032;-72
2023/11/15 05:21:29;;;;;;;8.27;4.82;;;9.40;99.90;;;;;;5072585;28;20107;-72
2023/11/15 05:23:55;;;;;;;11.82;5.13;;;9.40;99.90;;;;;;5072651;28;20142;-72
2023/11/15 05:26:21;;;;;;;14.45;5.95;;;9.40;99.90;;;;;;5076103;28;20382;-73
2023/11/15 05:28:47;;;;;;;13.15;6.20;;;9.40;99.90;;;;;;5076810;28;20028;-72
2023/11/15 05:31:12;;;;;;;14.13;7.07;;;9.40;99.90;;;;;;5076283;28;20021;-73
2023/11/15 05:33:38;;;;;;;17.75;7.82;;;9.50;99.90;;;;;;5076453;28;20028;-72
2023/11/15 05:36:04;;;;;;;16.23;8.43;;;9.50;99.90;;;;;;5076576;28;20107;-73
2023/11/15 05:38:30;;;;;;;22.70;8.25;;;9.50;99.90;;;;;;5076189;28;20409;-73
2023/11/15 05:40:57;;;;;;;18.85;8.30;;;9.50;99.90;;;;;;5076101;28;20075;-73
2023/11/15 05:43:22;;;;;;;17.40;8.00;;;9.50;99.90;;;;;;5076146;28;20391;-72
2023/11/15 05:45:48;;;;;;;16.60;7.13;;;9.50;99.90;;;;;;5076368;28;20027;-74
2023/11/15 05:48:14;;;;;;;17.13;6.70;;;9.50;99.90;;;;;;5075965;28;20028;-73
2023/11/15 05:50:40;;;;;;;12.68;6.68;;;9.40;99.90;;;;;;5076238;28;20490;-73
2023/11/15 05:53:05;;;;;;;14.85;6.13;;;9.40;99.90;;;;;;5075871;28;20028;-73
2023/11/15 05:55:31;;;;;;;11.18;5.90;;;9.40;99.90;;;;;;5076119;28;20033;-73
2023/11/15 05:57:57;;;;;;;12.02;4.95;;;9.40;99.90;;;;;;5076346;28;20083;-73
2023/11/15 06:00:22;;;;;;;12.60;5.43;;;9.40;99.90;;;;;;5076198;28;20074;-73
2023/11/15 06:02:49;;;;;;;10.90;5.85;;;9.40;99.90;;;;;;5076112;28;20123;-72
2023/11/15 06:05:16;;;;;;;8.27;3.55;;;9.30;99.90;;;;;;5076089;28;20063;-72
2023/11/15 06:07:42;;;;;;;7.35;3.35;;;9.20;99.90;;;;;;5075973;28;20420;-72
2023/11/15 06:10:08;;;;;;;6.38;3.53;;;9.10;99.90;;;;;;5075934;28;20047;-72
2023/11/15 06:12:36;;;;;;;7.72;3.60;;;9.10;99.90;;;;;;5075969;28;20059;-72
2023/11/15 06:15:03;;;;;;;6.57;3.53;;;9.10;99.90;;;;;;5075539;28;20478;-72
2023/11/15 06:17:30;;;;;;;5.30;2.80;;;9.00;99.90;;;;;;5075559;28;20131;-72
2023/11/15 06:19:56;;;;;;;4.45;2.40;;;9.00;99.90;;;;;;5075846;28;20024;-73
2023/11/15 06:22:23;;;;;;;4.78;2.40;;;8.90;99.90;;;;;;5075832;28;20545;-72
2023/11/15 06:24:50;;;;;;;5.70;2.20;;;9.00;99.90;;;;;;5075864;28;20474;-72
2023/11/15 06:27:17;;;;;;;3.35;1.85;;;8.90;99.90;;;;;;5075280;28;20029;-72
2023/11/15 06:29:47;;;;;;;3.00;1.85;;;8.90;99.90;;;;;;5075231;28;20056;-72
2023/11/15 06:32:13;;;;;;;3.72;2.20;;;8.90;99.90;;;;;;5075196;28;20021;-72
2023/11/15 06:34:39;;;;;;;5.93;3.90;;;8.90;99.90;;;;;;5075523;28;20028;-72
2023/11/15 06:37:06;;;;;;;21.25;14.32;;;9.00;99.90;;;;;;5075206;28;20062;-73
2023/11/15 06:39:32;;;;;;;33.92;23.20;;;9.00;99.90;;;;;;5075482;28;20359;-72
2023/11/15 06:41:57;;;;;;;45.08;27.10;;;9.10;99.90;;;;;;5074986;28;20048;-72
2023/11/15 06:44:23;;;;;;;52.88;32.17;;;9.10;99.90;;;;;;5075122;28;20024;-72
2023/11/15 06:46:50;;;;;;;49.72;26.95;;;9.30;99.90;;;;;;5075575;28;20090;-73
2023/11/15 06:49:17;;;;;;;55.35;33.45;;;9.40;99.90;;;;;;5074962;28;20021;-72
2023/11/15 06:51:51;;;;;;;43.30;25.02;;;9.50;99.90;;;;;;5075213;28;20025;-72
2023/11/15 06:54:16;;;;;;;45.05;21.13;;;9.50;99.90;;;;;;5075433;28;20032;-73
2023/11/15 06:56:46;;;;;;;39.33;20.52;;;9.50;99.90;;;;;;5075220;28;20034;-72
2023/11/15 06:59:13;;;;;;;125.68;71.60;;;9.60;99.90;;;;;;5075089;28;20559;-73
2023/11/15 07:01:39;;;;;;;86.93;48.28;;;9.60;99.90;;;;;;5074574;28;20034;-72
2023/11/15 07:04:05;;;;;;;54.08;27.15;;;9.70;99.90;;;;;;5074478;28;20051;-72
2023/11/15 07:06:32;;;;;;;68.45;37.67;;;9.70;99.90;;;;;;5074539;28;20020;-73
2023/11/15 07:08:59;;;;;;;73.00;35.70;;;9.80;99.90;;;;;;5074440;28;20029;-73
2023/11/15 07:11:25;;;;;;;83.18;44.03;;;9.90;99.90;;;;;;5074122;28;20016;-73
2023/11/15 07:13:50;;;;;;;80.25;45.65;;;9.90;99.90;;;;;;5074602;28;20020;-73
2023/11/15 07:16:16;;;;;;;87.88;43.45;;;10.00;99.90;;;;;;5074618;28;20039;-72
2023/11/15 07:18:42;;;;;;;87.72;45.28;;;10.00;99.90;;;;;;5074146;28;20035;-73
2023/11/15 07:21:08;;;;;;;98.00;49.88;;;10.10;99.90;;;;;;5074320;28;20047;-72
2023/11/15 07:23:34;;;;;;;69.80;39.58;;;10.20;99.90;;;;;;5073893;28;20401;-74
2023/11/15 07:25:59;;;;;;;83.57;42.22;;;10.20;99.90;;;;;;5074399;28;20031;-73
2023/11/15 07:28:25;;;;;;;80.85;45.33;;;10.30;99.90;;;;;;5074478;28;20411;-73
2023/11/15 07:30:51;;;;;;;74.25;37.28;;;10.40;99.90;;;;;;5074407;28;20398;-72
2023/11/15 07:33:20;;;;;;;74.82;35.90;;;10.30;99.90;;;;;;5074307;28;20507;-72
2023/11/15 07:35:47;;;;;;;64.07;37.60;;;10.30;99.90;;;;;;5073639;28;20115;-72
2023/11/15 07:38:14;;;;;;;64.18;35.05;;;10.40;99.90;;;;;;5073730;28;20120;-71
2023/11/15 07:40:41;;;;;;;64.00;34.78;;;10.40;99.90;;;;;;5073738;28;20024;-75
2023/11/15 07:43:07;;;;;;;58.95;32.42;;;10.40;99.90;;;;;;5073438;28;20506;-74
2023/11/15 07:45:35;;;;;;;54.28;28.98;;;10.40;99.90;;;;;;5073243;28;20020;-74
2023/11/15 07:48:02;;;;;;;56.83;27.98;;;10.40;99.90;;;;;;5073013;28;20390;-75
2023/11/15 07:50:28;;;;;;;51.40;26.33;;;10.40;99.90;;;;;;5074044;28;20386;-74
2023/11/15 07:52:54;;;;;;;51.33;26.33;;;10.40;99.90;;;;;;5073985;28;20044;-75
2023/11/15 07:55:19;;;;;;;52.80;24.98;;;10.30;99.90;;;;;;5074082;28;20036;-78
2023/11/15 07:57:45;;;;;;;44.40;24.85;;;10.40;99.90;;;;;;5073661;28;20098;-77
2023/11/15 08:00:11;;;;;;;44.58;22.80;;;10.40;99.90;;;;;;5073295;28;20067;-78
2023/11/15 08:02:38;;;;;;;46.58;21.77;;;10.30;99.90;;;;;;5073437;28;20112;-77
2023/11/15 08:05:07;;;;;;;41.05;21.73;;;10.30;99.90;;;;;;5073220;28;20017;-79
2023/11/15 08:07:36;;;;;;;41.92;19.52;;;10.30;99.90;;;;;;5073396;28;20036;-78
2023/11/15 08:10:05;;;;;;;42.10;19.23;;;10.20;99.90;;;;;;5073651;28;20107;-78
2023/11/15 08:12:35;;;;;;;37.30;18.67;;;10.10;99.90;;;;;;5073012;28;20025;-73
2023/11/15 08:15:03;;;;;;;36.72;19.02;;;10.10;99.90;;;;;;5072932;28;20025;-78
2023/11/15 08:17:29;;;;;;;43.10;19.52;;;10.10;99.90;;;;;;5073107;28;20055;-77
2023/11/15 08:19:56;;;;;;;41.88;18.58;;;10.10;99.90;;;;;;5072594;28;20505;-80
2023/11/15 08:22:22;;;;;;;43.72;17.98;;;10.10;99.90;;;;;;5073067;28;20056;-76
2023/11/15 08:24:48;;;;;;;38.22;17.95;;;10.10;99.90;;;;;;5073491;28;20060;-75
2023/11/15 08:27:15;;;;;;;40.60;18.48;;;10.10;99.90;;;;;;5072814;28;20021;-75
2023/11/15 08:29:41;;;;;;;36.47;18.08;;;10.10;99.90;;;;;;5072810;28;20390;-76
2023/11/15 08:32:09;;;;;;;37.22;17.52;;;10.20;99.90;;;;;;5072733;28;20484;-75
2023/11/15 08:34:35;;;;;;;41.13;17.73;;;10.20;99.90;;;;;;5072637;28;20028;-76
2023/11/15 08:37:04;;;;;;;36.42;17.77;;;10.20;99.90;;;;;;5072840;28;20559;-77
2023/11/15 08:39:31;;;;;;;34.47;18.45;;;10.30;99.90;;;;;;5052471;28;20035;-76
2023/11/15 08:41:57;;;;;;;36.80;19.77;;;10.30;99.90;;;;;;5052809;28;20045;-75
2023/11/15 08:44:23;;;;;;;36.95;19.45;;;10.40;99.90;;;;;;5052513;28;20033;-77
2023/11/15 08:46:51;;;;;;;41.83;19.52;;;10.50;99.90;;;;;;5052700;28;20021;-77
2023/11/15 08:49:17;;;;;;;39.55;19.80;;;10.50;99.90;;;;;;5052712;28;20090;-76
2023/11/15 08:51:44;;;;;;;37.65;19.67;;;10.50;99.90;;;;;;5052800;28;20025;-79
2023/11/15 08:54:10;;;;;;;40.20;20.30;;;10.50;99.90;;;;;;5053034;28;20029;-77
2023/11/15 08:56:38;;;;;;;42.63;18.40;;;10.50;99.90;;;;;;5052944;28;20136;-76
2023/11/15 08:59:04;;;;;;;34.50;17.77;;;10.60;99.90;;;;;;5053522;28;20112;-78
2023/11/15 09:01:30;;;;;;;36.85;18.85;;;10.50;99.90;;;;;;5057080;28;20130;-80
2023/11/15 09:03:56;;;;;;;37.10;17.55;;;10.70;99.90;;;;;;5056886;28;20029;-78
2023/11/15 09:06:23;;;;;;;33.03;16.23;;;10.70;99.90;;;;;;5056738;28;20059;-79
2023/11/15 09:08:49;;;;;;;34.33;17.02;;;10.60;99.90;;;;;;5056717;28;20044;-75
2023/11/15 09:11:16;;;;;;;33.25;14.48;;;10.60;99.90;;;;;;5056846;28;20470;-75
2023/11/15 09:13:42;;;;;;;32.78;14.82;;;10.50;99.90;;;;;;5055997;28;20021;-75
2023/11/15 09:16:12;;;;;;;31.90;14.75;;;10.50;99.90;;;;;;5056936;28;20037;-78
2023/11/15 09:18:38;;;;;;;32.58;14.15;;;10.50;99.90;;;;;;5056481;28;20125;-78
2023/11/15 09:21:04;;;;;;;23.77;13.40;;;10.50;99.90;;;;;;5058854;28;20060;-76
2023/11/15 09:23:30;;;;;;;29.92;12.73;;;10.50;99.90;;;;;;5076198;28;20040;-76
2023/11/15 09:25:58;;;;;;;33.90;12.02;;;10.50;99.90;;;;;;5076453;28;20062;-77
2023/11/15 09:28:24;;;;;;;28.63;13.20;;;10.60;99.90;;;;;;5076752;28;20111;-76
2023/11/15 09:30:52;;;;;;;26.15;12.32;;;10.70;99.90;;;;;;5076169;28;20108;-78
2023/11/15 09:33:18;;;;;;;25.20;12.23;;;10.70;99.90;;;;;;5076320;28;20036;-74
2023/11/15 09:35:44;;;;;;;22.27;11.57;;;10.70;99.90;;;;;;5076247;28;20044;-77
2023/11/15 09:38:11;;;;;;;21.40;10.25;;;10.80;99.90;;;;;;5076359;28;20040;-74
2023/11/15 09:40:37;;;;;;;24.73;11.82;;;10.70;99.90;;;;;;5075935;28;20481;-76
2023/11/15 09:43:04;;;;;;;26.10;12.38;;;10.70;99.90;;;;;;5075898;28;20048;-74
2023/11/15 09:45:32;;;;;;;28.70;12.13;;;10.50;99.90;;;;;;5075845;28;20028;-77
2023/11/15 09:48:00;;;;;;;31.70;13.73;;;10.50;99.90;;;;;;5075557;28;20040;-76
2023/11/15 09:50:31;;;;;;;35.47;13.40;;;10.50;99.90;;;;;;5076168;28;20478;-77
2023/11/15 09:53:03;;;;;;;41.50;15.27;;;10.40;99.90;;;;;;5075858;28;20046;-78
2023/11/15 09:55:29;;;;;;;30.85;14.23;;;10.50;99.90;;;;;;5075681;28;20095;-74
2023/11/15 09:57:55;;;;;;;36.80;13.88;;;10.40;99.90;;;;;;5075805;28;20024;-74
2023/11/15 10:00:22;;;;;;;35.63;13.38;;;10.50;99.90;;;;;;5075972;28;20032;-73
2023/11/15 10:02:48;;;;;;;28.63;12.85;;;10.50;99.90;;;;;;5076000;28;20028;-79
2023/11/15 10:05:23;;;;;;;30.27;12.63;;;10.50;99.90;;;;;;5076129;28;20028;-80
2023/11/15 10:07:52;;;;;;;33.83;13.40;;;10.50;99.90;;;;;;5075590;28;20020;-75
2023/11/15 10:10:21;;;;;;;23.70;12.75;;;10.50;99.90;;;;;;5075183;28;20512;-77
2023/11/15 10:12:49;;;;;;;36.45;14.10;;;10.50;99.90;;;;;;5075332;28;20090;-79
2023/11/15 10:15:16;;;;;;;34.88;13.88;;;10.50;99.90;;;;;;5075774;28;20043;-77
2023/11/15 10:17:42;;;;;;;23.73;11.32;;;10.50;99.90;;;;;;5075410;28;20025;-78
2023/11/15 10:20:25;;;;;;;29.23;11.35;;;10.50;99.90;;;;;;5075843;28;20065;-78
2023/11/15 10:22:54;;;;;;;23.60;10.45;;;10.40;99.90;;;;;;5075744;28;20056;-78
2023/11/15 10:25:20;;;;;;;26.48;10.65;;;10.40;99.90;;;;;;5075707;28;20025;-76
2023/11/15 10:27:46;;;;;;;29.30;11.85;;;10.40;99.90;;;;;;5075241;28;20021;-78
2023/11/15 10:30:16;;;;;;;32.60;12.10;;;10.50;99.90;;;;;;5075520;28;20094;-78
2023/11/15 10:32:44;;;;;;;30.02;11.20;;;10.50;99.90;;;;;;5075055;28;20119;-78
2023/11/15 10:35:10;;;;;;;31.58;12.13;;;10.60;99.90;;;;;;5075459;28;20028;-79
2023/11/15 10:37:52;;;;;;;24.90;10.75;;;10.70;99.90;;;;;;5074814;28;20025;-79
2023/11/15 10:40:21;;;;;;;22.02;10.82;;;10.80;99.90;;;;;;5075247;28;20032;-78
2023/11/15 10:42:49;;;;;;;26.42;10.43;;;10.90;99.90;;;;;;5074578;28;20102;-78
2023/11/15 10:45:15;;;;;;;21.27;9.43;;;11.00;99.90;;;;;;5074681;28;20406;-79
2023/11/15 10:47:49;;;;;;;21.58;9.70;;;11.20;99.90;;;;;;5075918;28;20016;-79
2023/11/15 10:50:21;;;;;;;22.67;9.15;;;11.80;99.90;;;;;;5075121;28;20086;-75
2023/11/15 10:52:49;;;;;;;23.95;8.90;;;11.80;99.90;;;;;;5074358;28;20020;-76
2023/11/15 10:55:17;;;;;;;25.20;8.85;;;11.90;99.90;;;;;;5074817;28;20052;-77
2023/11/15 10:57:46;;;;;;;24.45;9.02;;;12.00;99.90;;;;;;5074563;28;20434;-77
2023/11/15 11:00:17;;;;;;;24.30;8.13;;;11.90;99.90;;;;;;5073992;28;20028;-77
2023/11/15 11:02:44;;;;;;;20.95;8.18;;;11.70;99.90;;;;;;5074373;28;20075;-74
2023/11/15 11:05:15;;;;;;;19.67;7.10;;;11.80;99.90;;;;;;5073853;28;20021;-75
2023/11/15 11:08:10;;;;;;;24.52;8.57;;;11.90;99.90;;;;;;5074105;28;20397;-76
2023/11/15 11:10:45;;;;;;;18.05;8.68;;;11.80;99.90;;;;;;5074127;28;20078;-76
2023/11/15 11:13:22;;;;;;;23.20;8.70;;;11.60;99.90;;;;;;5074438;28;20385;-73
2023/11/15 11:15:49;;;;;;;25.95;8.27;;;11.40;99.90;;;;;;5074097;28;20056;-75
2023/11/15 11:18:17;;;;;;;18.25;7.22;;;11.70;99.90;;;;;;5074143;28;20169;-75
2023/11/15 11:21:01;;;;;;;16.33;8.05;;;11.80;99.90;;;;;;5074111;28;20025;-77
2023/11/15 11:23:30;;;;;;;21.13;8.48;;;11.80;99.90;;;;;;5072679;28;20037;-75
2023/11/15 11:26:35;;;;;;;17.88;7.80;;;11.70;99.90;;;;;;5073831;28;20028;-79
2023/11/15 11:29:03;;;;;;;15.52;7.30;;;11.60;99.90;;;;;;5074304;28;20021;-77
2023/11/15 11:31:30;;;;;;;20.95;8.73;;;11.50;99.90;;;;;;5074243;28;20032;-76
2023/11/15 11:34:10;;;;;;;21.75;7.70;;;11.70;99.90;;;;;;5073661;28;20547;-77
2023/11/15 11:36:53;;;;;;;20.15;7.25;;;11.90;99.90;;;;;;5074118;28;20060;-76
2023/11/15 11:39:23;;;;;;;17.50;6.67;;;12.20;99.90;;;;;;5073756;28;20032;-79
2023/11/15 11:41:49;;;;;;;17.65;6.85;;;12.20;99.90;;;;;;5073652;28;20910;-77
2023/11/15 11:44:18;;;;;;;16.20;6.45;;;12.00;99.90;;;;;;5073668;28;20166;-75
2023/11/15 11:46:59;;;;;;;13.57;5.68;;;11.90;99.90;;;;;;5074086;28;20493;-76
2023/11/15 11:49:24;;;;;;;15.15;6.20;;;11.80;99.90;;;;;;5073842;28;20071;-76
2023/11/15 11:51:50;;;;;;;14.73;6.13;;;11.80;99.90;;;;;;5073851;28;20500;-77
2023/11/15 11:54:23;;;;;;;19.48;6.05;;;11.70;99.90;;;;;;5073661;28;20059;-75
2023/11/15 11:56:49;;;;;;;14.60;4.80;;;11.70;99.90;;;;;;5073897;28;20028;-75
2023/11/15 11:59:15;;;;;;;15.75;6.30;;;11.80;99.90;;;;;;5073695;28;20485;-76
2023/11/15 12:01:50;;;;;;;16.45;5.00;;;11.80;99.90;;;;;;5073379;28;20040;-75
2023/11/15 12:04:15;;;;;;;16.60;6.32;;;11.80;99.90;;;;;;5073117;28;20141;-75
2023/11/15 12:06:41;;;;;;;17.35;6.10;;;11.60;99.90;;;;;;5073627;28;20166;-76
2023/11/15 12:09:10;;;;;;;20.15;6.50;;;11.50;99.90;;;;;;5073714;28;20044;-77
2023/11/15 12:11:36;;;;;;;15.18;6.88;;;11.50;99.90;;;;;;5073982;28;20023;-78
2023/11/15 12:14:04;;;;;;;13.07;6.30;;;11.50;99.90;;;;;;5074094;28;20462;-78
2023/11/15 12:16:30;;;;;;;17.80;6.60;;;11.50;99.90;;;;;;5073994;28;20062;-78
2023/11/15 12:19:01;;;;;;;17.50;7.00;;;11.50;99.90;;;;;;5074082;28;20063;-78
2023/11/15 12:21:29;;;;;;;22.60;8.43;;;11.60;99.90;;;;;;5073545;28;20039;-78
2023/11/15 12:23:54;;;;;;;15.82;7.40;;;11.60;99.90;;;;;;5073486;28;20020;-78
2023/11/15 12:26:21;;;;;;;16.88;7.15;;;11.50;99.90;;;;;;5073577;28;20082;-79
2023/11/15 12:28:48;;;;;;;17.98;7.57;;;11.50;99.90;;;;;;5073179;28;20493;-78
2023/11/15 12:31:15;;;;;;;21.63;9.00;;;11.50;99.90;;;;;;5073731;28;20454;-79
2023/11/15 12:33:41;;;;;;;21.85;9.07;;;11.40;99.90;;;;;;5073596;28;20523;-78
2023/11/15 12:36:11;;;;;;;25.25;9.20;;;11.40;99.90;;;;;;5073793;28;20507;-79